Time;durP1;ratioP1;P1;durP2;ratioP2;P2;SDS_P1;SDS_P2;PMS_P1;PMS_P2;Temp;Humidity;BMP_temperature;BMP_pressure;BME280_temperature;BME280_humidity;BME280_pressure;Samples;Min_cycle;Max_cycle;Signal;HPM_P1;HPM_P2
2023/09/11 00:00:59;;;;;;;14.57;8.93;;;23.30;73.10;;;;;;4942809;28;20055;-74
2023/09/11 00:03:25;;;;;;;13.68;8.75;;;23.30;73.30;;;;;;4944445;28;20039;-75
2023/09/11 00:05:51;;;;;;;13.80;9.00;;;23.30;73.20;;;;;;4951076;28;20413;-75
2023/09/11 00:08:17;;;;;;;17.00;9.75;;;23.30;73.40;;;;;;4946646;28;20051;-75
2023/09/11 00:10:42;;;;;;;17.48;10.00;;;23.20;73.40;;;;;;4946851;28;20019;-77
2023/09/11 00:13:08;;;;;;;13.55;8.40;;;23.10;73.50;;;;;;4940495;28;20087;-74
2023/09/11 00:15:35;;;;;;;14.57;9.05;;;23.10;73.70;;;;;;4941362;28;20442;-75
2023/09/11 00:18:01;;;;;;;14.13;9.43;;;23.10;73.90;;;;;;4954705;28;20043;-77
2023/09/11 00:20:26;;;;;;;12.88;8.43;;;23.10;74.10;;;;;;4961987;28;20041;-74
2023/09/11 00:22:52;;;;;;;13.70;9.20;;;23.00;74.30;;;;;;4959700;28;20035;-77
2023/09/11 00:25:18;;;;;;;12.68;8.65;;;22.90;74.40;;;;;;4961063;28;20338;-73
2023/09/11 00:27:43;;;;;;;13.70;8.68;;;22.90;74.60;;;;;;4956031;28;20043;-76
2023/09/11 00:30:10;;;;;;;11.65;8.07;;;22.90;74.50;;;;;;4941703;28;20091;-76
2023/09/11 00:32:36;;;;;;;13.63;9.15;;;22.80;74.70;;;;;;5062565;28;20025;-74
2023/09/11 00:35:02;;;;;;;14.43;9.00;;;22.80;74.80;;;;;;5044452;28;20025;-74
2023/09/11 00:37:27;;;;;;;12.65;7.93;;;22.80;74.90;;;;;;5010536;28;20488;-76
2023/09/11 00:39:53;;;;;;;11.98;8.55;;;22.80;75.10;;;;;;4963383;28;20048;-74
2023/09/11 00:42:19;;;;;;;12.50;8.40;;;22.70;75.20;;;;;;4960289;28;20056;-74
2023/09/11 00:44:44;;;;;;;13.02;8.38;;;22.70;75.30;;;;;;4962669;28;20027;-74
2023/09/11 00:47:11;;;;;;;13.63;8.32;;;22.60;75.40;;;;;;4960072;28;20708;-74
2023/09/11 00:49:37;;;;;;;12.75;9.02;;;22.60;75.60;;;;;;4957536;28;20043;-76
2023/09/11 00:52:03;;;;;;;14.65;8.77;;;22.60;75.70;;;;;;4960177;28;20120;-77
2023/09/11 00:54:29;;;;;;;12.77;8.95;;;22.60;75.70;;;;;;4958400;28;20481;-74
2023/09/11 00:56:55;;;;;;;12.98;8.27;;;22.60;75.60;;;;;;4960656;28;20086;-74
2023/09/11 00:59:22;;;;;;;13.15;9.30;;;22.50;75.80;;;;;;4961639;28;20028;-74
2023/09/11 01:01:48;;;;;;;18.30;10.20;;;22.50;75.80;;;;;;4959755;28;20035;-73
2023/09/11 01:04:16;;;;;;;17.30;10.75;;;22.50;75.80;;;;;;4980357;28;20054;-75
2023/09/11 01:06:42;;;;;;;14.75;10.65;;;22.40;75.90;;;;;;4970103;28;20096;-75
2023/09/11 01:09:08;;;;;;;16.67;11.48;;;22.40;75.90;;;;;;4960836;28;20474;-77
2023/09/11 01:11:34;;;;;;;18.20;11.77;;;22.50;75.90;;;;;;4960808;28;20146;-75
2023/09/11 01:14:00;;;;;;;16.40;11.98;;;22.50;76.10;;;;;;4961026;28;20487;-75
2023/09/11 01:16:48;;;;;;;16.20;12.63;;;22.50;76.30;;;;;;4963533;28;20593;-78
2023/09/11 01:19:44;;;;;;;17.40;14.80;;;22.40;76.60;;;;;;4957256;28;20668;-74
2023/09/11 01:22:31;;;;;;;19.90;16.23;;;22.40;76.90;;;;;;4962862;28;20045;-75
2023/09/11 01:25:19;;;;;;;20.27;17.00;;;22.30;77.10;;;;;;4966749;28;20150;-74
2023/09/11 01:28:09;;;;;;;26.95;20.48;;;22.30;77.50;;;;;;5036970;28;20055;-74
2023/09/11 01:30:35;;;;;;;23.00;20.48;;;22.30;77.70;;;;;;4937174;28;20035;-74
2023/09/11 01:33:01;;;;;;;23.27;20.58;;;22.30;77.90;;;;;;4933862;28;20055;-74
2023/09/11 01:35:26;;;;;;;27.35;20.98;;;22.30;78.00;;;;;;4947599;28;20027;-74
2023/09/11 01:37:55;;;;;;;22.50;20.23;;;22.20;78.10;;;;;;4941636;28;20051;-73
2023/09/11 01:40:24;;;;;;;21.30;19.17;;;22.20;78.30;;;;;;4941826;28;20038;-75
2023/09/11 01:42:55;;;;;;;22.40;18.27;;;22.20;78.30;;;;;;4948918;28;20379;-73
2023/09/11 01:45:21;;;;;;;23.35;20.30;;;22.20;78.40;;;;;;4966452;28;20032;-76
2023/09/11 01:47:50;;;;;;;21.02;17.88;;;22.20;78.30;;;;;;4953087;28;20173;-74
2023/09/11 01:50:17;;;;;;;21.27;17.42;;;22.20;78.50;;;;;;4940348;28;20027;-73
2023/09/11 01:52:49;;;;;;;20.70;18.50;;;22.20;78.60;;;;;;4967415;28;20040;-76
2023/09/11 01:55:15;;;;;;;21.77;18.67;;;22.10;78.50;;;;;;4971184;28;20029;-74
2023/09/11 01:57:40;;;;;;;20.80;17.73;;;22.10;78.60;;;;;;4967014;28;20095;-74
2023/09/11 02:00:08;;;;;;;21.20;17.65;;;22.10;78.90;;;;;;4948677;28;20039;-75
2023/09/11 02:02:34;;;;;;;23.20;17.30;;;22.10;79.00;;;;;;4944997;28;20035;-73
2023/09/11 02:05:00;;;;;;;22.30;16.23;;;22.10;79.10;;;;;;4946818;28;20038;-73
2023/09/11 02:07:26;;;;;;;29.50;19.00;;;22.10;79.00;;;;;;4948702;28;20066;-75
2023/09/11 02:09:51;;;;;;;22.23;17.33;;;22.00;79.20;;;;;;4943089;28;20020;-74
2023/09/11 02:12:17;;;;;;;23.95;17.08;;;22.00;79.30;;;;;;4943948;28;20058;-76
2023/09/11 02:14:43;;;;;;;21.52;18.48;;;22.00;79.50;;;;;;4952900;28;20041;-75
2023/09/11 02:17:08;;;;;;;21.92;16.80;;;22.00;79.60;;;;;;4942353;28;20644;-72
2023/09/11 02:19:34;;;;;;;20.20;17.50;;;22.00;79.70;;;;;;4949751;28;20037;-78
2023/09/11 02:22:00;;;;;;;21.05;17.27;;;22.00;79.70;;;;;;4967322;28;20687;-73
2023/09/11 02:24:26;;;;;;;20.23;17.20;;;21.90;79.70;;;;;;4946928;28;20394;-73
2023/09/11 02:26:55;;;;;;;21.70;17.92;;;21.90;79.80;;;;;;4948800;28;21327;-75
2023/09/11 02:29:20;;;;;;;24.73;20.70;;;21.90;79.90;;;;;;4935265;28;20073;-73
2023/09/11 02:31:46;;;;;;;22.77;18.83;;;21.90;79.90;;;;;;4938939;28;20691;-73
2023/09/11 02:34:12;;;;;;;24.92;20.65;;;21.80;80.20;;;;;;4941087;28;20110;-76
2023/09/11 02:36:38;;;;;;;24.70;21.35;;;21.80;80.30;;;;;;4944234;28;20106;-74
2023/09/11 02:39:04;;;;;;;25.58;21.35;;;21.80;80.40;;;;;;4962869;28;20035;-76
2023/09/11 02:41:29;;;;;;;27.73;23.45;;;21.80;80.60;;;;;;4954147;28;20062;-73
2023/09/11 02:43:55;;;;;;;24.92;20.05;;;21.80;80.80;;;;;;4943978;28;20043;-74
2023/09/11 02:46:21;;;;;;;23.95;20.90;;;21.80;80.90;;;;;;4952425;28;20400;-74
2023/09/11 02:48:47;;;;;;;27.77;23.02;;;21.80;81.20;;;;;;4947573;28;20043;-73
2023/09/11 02:51:14;;;;;;;30.50;23.27;;;21.80;81.20;;;;;;4943883;28;20019;-74
2023/09/11 02:53:39;;;;;;;25.08;22.05;;;21.80;81.20;;;;;;4950076;28;20053;-75
2023/09/11 02:56:05;;;;;;;28.15;21.63;;;21.70;81.30;;;;;;4958181;28;20428;-72
2023/09/11 02:58:31;;;;;;;28.48;24.52;;;21.70;81.30;;;;;;4942882;28;20772;-74
2023/09/11 03:01:04;;;;;;;22.83;20.45;;;21.70;81.50;;;;;;4943104;28;20096;-73
2023/09/11 03:03:30;;;;;;;26.45;22.15;;;21.60;81.60;;;;;;4954959;28;20532;-73
2023/09/11 03:05:58;;;;;;;25.10;21.27;;;21.60;81.60;;;;;;4952743;28;20508;-73
2023/09/11 03:08:24;;;;;;;24.33;21.50;;;21.60;81.50;;;;;;4942286;28;20577;-74
2023/09/11 03:10:50;;;;;;;26.08;21.10;;;21.60;81.70;;;;;;4949116;28;20046;-73
2023/09/11 03:13:16;;;;;;;30.48;23.30;;;21.60;81.80;;;;;;4939532;28;20043;-76
2023/09/11 03:15:44;;;;;;;24.08;21.38;;;21.50;82.10;;;;;;4947093;28;20026;-73
2023/09/11 03:18:10;;;;;;;25.55;22.63;;;21.50;82.10;;;;;;4940156;28;20042;-75
2023/09/11 03:20:36;;;;;;;24.75;21.48;;;21.50;82.20;;;;;;4950768;28;20042;-77
2023/09/11 03:23:01;;;;;;;25.08;21.05;;;21.40;82.30;;;;;;4944981;28;20043;-73
2023/09/11 03:25:28;;;;;;;25.02;20.77;;;21.40;82.30;;;;;;4935487;28;20027;-74
2023/09/11 03:27:54;;;;;;;23.60;21.00;;;21.30;82.50;;;;;;4936309;28;20115;-74
2023/09/11 03:30:20;;;;;;;23.83;21.20;;;21.30;82.60;;;;;;4942048;28;20409;-74
2023/09/11 03:32:45;;;;;;;23.63;19.75;;;21.30;82.70;;;;;;4936854;28;20093;-74
2023/09/11 03:35:11;;;;;;;30.73;22.23;;;21.30;82.70;;;;;;4939531;28;20128;-73
2023/09/11 03:37:37;;;;;;;23.77;20.25;;;21.30;82.70;;;;;;4940424;28;20051;-74
2023/09/11 03:40:07;;;;;;;23.98;21.45;;;21.20;82.80;;;;;;4949811;28;20402;-76
2023/09/11 03:42:34;;;;;;;25.65;22.17;;;21.20;82.80;;;;;;4936272;28;20088;-74
2023/09/11 03:45:00;;;;;;;23.05;20.65;;;21.10;83.00;;;;;;4940725;28;20079;-74
2023/09/11 03:47:25;;;;;;;28.23;21.25;;;21.10;83.10;;;;;;4936747;28;20039;-77
2023/09/11 03:49:51;;;;;;;23.52;20.98;;;21.10;83.10;;;;;;4934560;28;20031;-73
2023/09/11 03:52:17;;;;;;;23.77;21.08;;;21.20;83.20;;;;;;4941956;28;20033;-73
2023/09/11 03:54:43;;;;;;;23.30;20.15;;;21.10;83.00;;;;;;4934441;28;20023;-76
2023/09/11 03:57:09;;;;;;;23.40;20.90;;;21.20;83.10;;;;;;4935132;28;20035;-75
2023/09/11 03:59:35;;;;;;;23.13;20.33;;;21.10;82.90;;;;;;4935114;28;20074;-76
2023/09/11 04:02:00;;;;;;;21.88;18.58;;;21.10;82.90;;;;;;4940364;28;20051;-74
2023/09/11 04:04:26;;;;;;;20.65;17.75;;;21.10;82.90;;;;;;4953480;28;20057;-72
2023/09/11 04:06:52;;;;;;;22.05;17.83;;;21.10;82.80;;;;;;4964003;28;24361;-77
2023/09/11 04:09:17;;;;;;;24.30;19.40;;;21.10;82.90;;;;;;4954973;28;20030;-75
2023/09/11 04:11:43;;;;;;;24.20;20.45;;;21.20;82.80;;;;;;4958289;28;20034;-74
2023/09/11 04:14:09;;;;;;;21.83;19.30;;;21.20;82.50;;;;;;4958718;28;20495;-73
2023/09/11 04:16:34;;;;;;;23.48;19.67;;;21.10;82.50;;;;;;4959291;28;20039;-76
2023/09/11 04:19:00;;;;;;;21.42;18.55;;;21.20;82.50;;;;;;4960752;28;20042;-76
2023/09/11 04:21:27;;;;;;;23.20;19.17;;;21.10;82.40;;;;;;4960528;28;20602;-73
2023/09/11 04:23:52;;;;;;;24.17;19.70;;;21.10;82.50;;;;;;4960520;28;20073;-73
2023/09/11 04:26:18;;;;;;;26.58;20.20;;;21.10;82.60;;;;;;4973266;28;20069;-74
2023/09/11 04:28:44;;;;;;;21.23;18.88;;;21.00;82.60;;;;;;4956641;28;20533;-73
2023/09/11 04:31:09;;;;;;;22.38;19.23;;;21.00;82.60;;;;;;4960600;28;20042;-74
2023/09/11 04:33:35;;;;;;;24.20;20.92;;;21.00;82.60;;;;;;4935551;28;20031;-74
2023/09/11 04:36:01;;;;;;;22.08;17.52;;;21.00;82.60;;;;;;4935936;28;20665;-74
2023/09/11 04:38:28;;;;;;;25.05;20.33;;;21.00;82.80;;;;;;4940420;28;20158;-75
2023/09/11 04:40:57;;;;;;;22.40;18.25;;;20.90;82.70;;;;;;4942198;28;20066;-73
2023/09/11 04:43:24;;;;;;;26.65;20.20;;;20.90;82.90;;;;;;4951752;28;20092;-74
2023/09/11 04:45:50;;;;;;;22.13;18.02;;;20.80;82.90;;;;;;4957212;28;20065;-75
2023/09/11 04:48:16;;;;;;;20.52;17.00;;;20.90;82.90;;;;;;4962185;28;20050;-74
2023/09/11 04:50:42;;;;;;;21.85;18.52;;;20.80;82.80;;;;;;4949221;28;20085;-71
2023/09/11 04:53:07;;;;;;;23.25;18.13;;;20.80;82.90;;;;;;4957522;28;20421;-74
2023/09/11 04:55:33;;;;;;;22.52;18.30;;;20.80;82.90;;;;;;4958623;28;20038;-74
2023/09/11 04:57:59;;;;;;;21.80;18.35;;;20.80;83.00;;;;;;4959954;28;20042;-75
2023/09/11 05:00:26;;;;;;;20.90;17.33;;;20.80;83.00;;;;;;4962380;28;20122;-75
2023/09/11 05:02:52;;;;;;;19.85;17.70;;;20.70;83.10;;;;;;4964162;28;20034;-74
2023/09/11 05:05:18;;;;;;;23.55;18.75;;;20.70;83.10;;;;;;4959747;28;20025;-76
2023/09/11 05:07:44;;;;;;;19.30;17.20;;;20.80;82.90;;;;;;4958895;28;20676;-77
2023/09/11 05:10:10;;;;;;;21.60;17.15;;;20.70;83.00;;;;;;4962975;28;20502;-75
2023/09/11 05:12:35;;;;;;;20.67;17.27;;;20.70;83.10;;;;;;4968562;28;20038;-74
2023/09/11 05:15:01;;;;;;;18.05;16.20;;;20.60;83.10;;;;;;4960811;28;20039;-75
2023/09/11 05:17:27;;;;;;;20.85;17.38;;;20.60;83.20;;;;;;4957829;28;20073;-74
2023/09/11 05:19:53;;;;;;;18.60;16.60;;;20.60;83.20;;;;;;4962105;28;20057;-76
2023/09/11 05:22:19;;;;;;;19.52;17.35;;;20.60;83.30;;;;;;4960398;28;20149;-73
2023/09/11 05:24:44;;;;;;;21.38;17.48;;;20.60;83.30;;;;;;4963683;28;20023;-77
2023/09/11 05:27:10;;;;;;;19.05;16.80;;;20.60;83.40;;;;;;4953133;28;20681;-73
2023/09/11 05:29:36;;;;;;;25.50;18.70;;;20.60;83.40;;;;;;4950120;28;20020;-73
2023/09/11 05:32:02;;;;;;;23.10;18.02;;;20.60;83.50;;;;;;4960764;28;20031;-75
2023/09/11 05:34:28;;;;;;;22.52;17.55;;;20.50;83.60;;;;;;4941774;28;20058;-75
2023/09/11 05:36:54;;;;;;;20.88;18.08;;;20.60;83.60;;;;;;4950282;28;20042;-76
2023/09/11 05:39:20;;;;;;;19.65;17.60;;;20.60;83.50;;;;;;4942290;28;20019;-74
2023/09/11 05:41:45;;;;;;;22.27;17.10;;;20.50;83.60;;;;;;4937718;28;20031;-76
2023/09/11 05:44:12;;;;;;;24.23;18.13;;;20.50;83.80;;;;;;4935241;28;20673;-76
2023/09/11 05:46:38;;;;;;;19.70;16.45;;;20.50;83.80;;;;;;4936102;28;20043;-75
2023/09/11 05:49:03;;;;;;;22.48;17.95;;;20.50;83.80;;;;;;4934770;28;20055;-76
2023/09/11 05:51:29;;;;;;;19.63;17.52;;;20.60;83.80;;;;;;4939803;28;20182;-75
2023/09/11 05:53:55;;;;;;;18.40;16.42;;;20.60;83.70;;;;;;4936935;28;20047;-72
2023/09/11 05:56:20;;;;;;;22.52;17.63;;;20.60;83.70;;;;;;4937973;28;20099;-75
2023/09/11 05:58:46;;;;;;;23.40;18.00;;;20.60;83.60;;;;;;4949279;28;20039;-73
2023/09/11 06:01:13;;;;;;;26.92;17.98;;;20.60;83.70;;;;;;4942542;28;20062;-76
2023/09/11 06:03:39;;;;;;;27.48;19.80;;;20.60;83.80;;;;;;4940950;28;20726;-74
2023/09/11 06:06:05;;;;;;;20.85;18.33;;;20.70;83.60;;;;;;4946617;28;20027;-73
2023/09/11 06:08:32;;;;;;;20.90;16.85;;;20.70;83.60;;;;;;4940465;28;20051;-76
2023/09/11 06:10:59;;;;;;;24.50;17.67;;;20.80;83.60;;;;;;4938133;28;20031;-73
2023/09/11 06:13:26;;;;;;;23.27;18.83;;;20.70;83.30;;;;;;4942264;28;20055;-76
2023/09/11 06:15:52;;;;;;;26.67;19.15;;;20.80;83.20;;;;;;4941041;28;20030;-72
2023/09/11 06:18:17;;;;;;;23.98;18.20;;;20.80;83.10;;;;;;4937590;28;20048;-74
2023/09/11 06:20:43;;;;;;;23.40;19.42;;;20.80;83.10;;;;;;4949867;28;20039;-75
2023/09/11 06:23:10;;;;;;;25.05;19.65;;;20.80;83.00;;;;;;4936743;28;20040;-75
2023/09/11 06:25:36;;;;;;;27.88;21.13;;;20.90;82.90;;;;;;4937540;28;20027;-73
2023/09/11 06:28:03;;;;;;;22.40;19.73;;;20.90;83.10;;;;;;4948610;28;20050;-74
2023/09/11 06:30:31;;;;;;;26.08;20.60;;;21.00;83.00;;;;;;4962056;28;20423;-77
2023/09/11 06:32:57;;;;;;;27.13;20.90;;;21.00;82.70;;;;;;4976485;28;20651;-75
2023/09/11 06:35:22;;;;;;;22.50;19.30;;;21.10;82.80;;;;;;4969972;28;20045;-74
2023/09/11 06:37:48;;;;;;;21.58;19.25;;;21.10;82.70;;;;;;4959829;28;20112;-74
2023/09/11 06:40:15;;;;;;;23.05;18.42;;;21.30;82.30;;;;;;4973647;28;20057;-75
2023/09/11 06:42:40;;;;;;;21.63;17.27;;;21.40;82.10;;;;;;4956240;28;20032;-74
2023/09/11 06:45:06;;;;;;;23.17;19.25;;;21.50;81.80;;;;;;4960671;28;20116;-75
2023/09/11 06:47:32;;;;;;;27.42;18.13;;;21.60;81.70;;;;;;4960925;28;20493;-73
2023/09/11 06:49:59;;;;;;;27.45;18.27;;;21.70;81.30;;;;;;4966213;28;20037;-75
2023/09/11 06:52:25;;;;;;;24.02;17.67;;;21.80;81.00;;;;;;4961374;28;20124;-74
2023/09/11 06:54:50;;;;;;;22.10;17.15;;;21.90;80.70;;;;;;4958262;28;20098;-75
2023/09/11 06:57:16;;;;;;;24.75;18.17;;;22.00;80.70;;;;;;4958623;28;20043;-74
2023/09/11 06:59:42;;;;;;;22.92;18.30;;;22.10;80.20;;;;;;4958152;28;20069;-76
2023/09/11 07:02:08;;;;;;;28.63;18.63;;;22.20;79.90;;;;;;4958159;28;20366;-75
2023/09/11 07:04:34;;;;;;;22.38;17.88;;;22.30;79.40;;;;;;4957987;28;20049;-73
2023/09/11 07:07:00;;;;;;;20.08;16.25;;;22.40;79.40;;;;;;4950260;28;20044;-73
2023/09/11 07:09:25;;;;;;;23.10;18.35;;;22.40;78.90;;;;;;4940818;28;20066;-76
2023/09/11 07:11:52;;;;;;;25.02;17.75;;;22.60;78.20;;;;;;4943417;28;20074;-74
2023/09/11 07:14:22;;;;;;;21.05;17.33;;;22.60;78.30;;;;;;4943982;28;20032;-74
2023/09/11 07:16:48;;;;;;;23.08;17.00;;;22.70;77.80;;;;;;4944407;28;20038;-75
2023/09/11 07:19:14;;;;;;;22.98;17.73;;;22.80;77.60;;;;;;4958133;28;20034;-74
2023/09/11 07:21:41;;;;;;;23.77;17.02;;;23.00;76.90;;;;;;4934584;28;20028;-74
2023/09/11 07:24:07;;;;;;;21.83;15.98;;;23.00;75.70;;;;;;4969911;28;20027;-77
2023/09/11 07:26:33;;;;;;;20.73;15.55;;;23.20;75.90;;;;;;4961661;28;20864;-74
2023/09/11 07:29:03;;;;;;;22.80;16.17;;;23.30;74.90;;;;;;4964782;28;20061;-75
2023/09/11 07:31:30;;;;;;;22.63;15.70;;;23.40;74.30;;;;;;4961347;28;20031;-77
2023/09/11 07:33:56;;;;;;;21.17;16.00;;;23.50;74.30;;;;;;4943312;28;20707;-74
2023/09/11 07:36:21;;;;;;;20.92;15.63;;;23.50;74.00;;;;;;4941574;28;20105;-73
2023/09/11 07:38:47;;;;;;;21.85;15.82;;;23.60;74.30;;;;;;4941009;28;20039;-74
2023/09/11 07:41:17;;;;;;;20.10;16.75;;;23.70;73.40;;;;;;4936398;28;20031;-75
2023/09/11 07:43:50;;;;;;;18.38;15.18;;;23.80;73.50;;;;;;4958938;28;20492;-74
2023/09/11 07:46:19;;;;;;;23.92;16.65;;;23.90;73.10;;;;;;4965346;28;20031;-74
2023/09/11 07:48:44;;;;;;;20.35;15.93;;;23.90;71.30;;;;;;4955288;28;20612;-73
2023/09/11 07:51:10;;;;;;;20.35;16.58;;;24.00;71.60;;;;;;4961314;28;20026;-74
2023/09/11 07:53:36;;;;;;;18.83;15.95;;;24.20;71.10;;;;;;4968469;28;20031;-76
2023/09/11 07:56:06;;;;;;;22.52;16.05;;;24.10;71.50;;;;;;4936192;28;20114;-73
2023/09/11 07:58:32;;;;;;;20.13;14.43;;;24.10;71.40;;;;;;4948672;28;20051;-74
2023/09/11 08:00:57;;;;;;;20.00;16.02;;;24.10;71.10;;;;;;4941175;28;20031;-75
2023/09/11 08:03:23;;;;;;;19.73;15.45;;;24.20;70.10;;;;;;4956031;28;20672;-73
2023/09/11 08:05:49;;;;;;;20.67;14.50;;;24.10;70.30;;;;;;4962189;28;20539;-75
2023/09/11 08:08:14;;;;;;;17.58;14.52;;;24.40;69.80;;;;;;4947237;28;20039;-74
2023/09/11 08:10:40;;;;;;;17.45;13.93;;;24.50;69.20;;;;;;4998625;28;20033;-74
2023/09/11 08:13:06;;;;;;;19.83;14.93;;;24.50;69.60;;;;;;4972535;28;20042;-75
2023/09/11 08:15:31;;;;;;;17.92;14.65;;;24.60;69.10;;;;;;4955779;28;20051;-73
2023/09/11 08:17:57;;;;;;;20.92;15.10;;;24.60;69.60;;;;;;4939656;28;20098;-75
2023/09/11 08:20:23;;;;;;;16.33;13.40;;;24.50;69.50;;;;;;4938273;28;20028;-75
2023/09/11 08:22:49;;;;;;;19.42;13.27;;;24.40;69.30;;;;;;4961718;28;20036;-74
2023/09/11 08:25:15;;;;;;;18.25;14.20;;;24.60;68.90;;;;;;4942438;28;20034;-75
2023/09/11 08:27:40;;;;;;;18.40;13.65;;;24.80;67.90;;;;;;4938229;28;20178;-74
2023/09/11 08:30:07;;;;;;;16.23;13.70;;;25.00;68.40;;;;;;4939037;28;20036;-75
2023/09/11 08:32:35;;;;;;;23.33;12.05;;;25.30;67.10;;;;;;4938413;28;20050;-75
2023/09/11 08:35:02;;;;;;;17.10;12.82;;;25.60;66.70;;;;;;4933962;28;20027;-75
2023/09/11 08:37:29;;;;;;;17.85;13.88;;;26.00;65.70;;;;;;4929332;28;20070;-72
2023/09/11 08:39:55;;;;;;;20.15;14.05;;;26.10;65.40;;;;;;4938393;28;20031;-74
2023/09/11 08:42:22;;;;;;;19.20;13.82;;;26.10;65.00;;;;;;4937867;28;20051;-75
2023/09/11 08:44:49;;;;;;;15.75;12.10;;;26.30;64.20;;;;;;4937263;28;21061;-74
2023/09/11 08:47:16;;;;;;;16.35;12.60;;;26.40;64.60;;;;;;4953712;28;20043;-74
2023/09/11 08:49:44;;;;;;;16.15;11.48;;;26.40;63.50;;;;;;4939787;28;20081;-75
2023/09/11 08:52:15;;;;;;;15.48;11.13;;;26.30;63.20;;;;;;4939341;28;20146;-73
2023/09/11 08:54:42;;;;;;;22.10;14.13;;;26.40;63.60;;;;;;4943952;28;20107;-77
2023/09/11 08:57:12;;;;;;;15.77;11.85;;;26.20;62.90;;;;;;4943882;28;20039;-73
2023/09/11 08:59:43;;;;;;;18.27;13.88;;;26.50;63.10;;;;;;4941420;28;20062;-74
2023/09/11 09:02:09;;;;;;;20.20;14.13;;;26.50;63.00;;;;;;4941890;28;20039;-75
2023/09/11 09:04:36;;;;;;;15.93;12.82;;;26.50;62.60;;;;;;4941093;28;20027;-75
2023/09/11 09:07:02;;;;;;;19.45;13.45;;;26.70;62.40;;;;;;4945174;28;20169;-75
2023/09/11 09:09:28;;;;;;;18.00;13.82;;;26.90;62.60;;;;;;4938845;28;20027;-77
2023/09/11 09:11:54;;;;;;;16.92;13.15;;;26.90;62.30;;;;;;4941300;28;20121;-76
2023/09/11 09:14:20;;;;;;;16.58;12.25;;;27.00;62.70;;;;;;4936977;28;20560;-75
2023/09/11 09:16:47;;;;;;;19.42;14.30;;;27.00;61.50;;;;;;4942165;28;20024;-74
2023/09/11 09:19:13;;;;;;;21.50;15.48;;;27.00;62.00;;;;;;4936600;28;20039;-74
2023/09/11 09:22:06;;;;;;;19.02;13.85;;;27.00;61.80;;;;;;4942486;28;20081;-75
2023/09/11 09:24:32;;;;;;;17.90;12.77;;;27.30;61.10;;;;;;4940315;28;20050;-76
2023/09/11 09:27:02;;;;;;;17.48;9.85;;;27.10;60.90;;;;;;4940691;28;20051;-75
2023/09/11 09:29:36;;;;;;;12.80;7.80;;;27.20;59.40;;;;;;4934879;28;20390;-76
2023/09/11 09:32:03;;;;;;;13.88;7.57;;;27.30;59.60;;;;;;4938531;28;20064;-74
2023/09/11 09:34:31;;;;;;;13.88;8.45;;;27.50;59.30;;;;;;4941830;28;20115;-73
2023/09/11 09:36:56;;;;;;;14.98;8.63;;;27.40;58.60;;;;;;4937807;28;20487;-74
2023/09/11 09:39:27;;;;;;;13.48;7.75;;;27.20;59.10;;;;;;4941558;28;20034;-73
2023/09/11 09:42:02;;;;;;;13.85;7.95;;;27.20;58.40;;;;;;4943373;28;20050;-74
2023/09/11 09:44:32;;;;;;;11.68;7.97;;;26.70;59.70;;;;;;4940432;28;20035;-75
2023/09/11 09:47:16;;;;;;;11.07;8.60;;;26.80;60.40;;;;;;4936308;28;20370;-74
2023/09/11 09:49:53;;;;;;;14.27;10.40;;;26.90;60.20;;;;;;4938979;28;20045;-74
2023/09/11 09:52:21;;;;;;;11.40;8.82;;;26.70;61.00;;;;;;4945157;28;20065;-75
2023/09/11 09:54:49;;;;;;;15.07;9.65;;;27.00;62.00;;;;;;4941426;28;20125;-78
2023/09/11 09:57:19;;;;;;;14.93;9.05;;;27.10;60.40;;;;;;4937162;28;20062;-75
2023/09/11 09:59:52;;;;;;;14.23;9.80;;;27.30;61.10;;;;;;4970605;28;20038;-74
2023/09/11 10:02:23;;;;;;;13.07;10.60;;;27.30;59.60;;;;;;4960627;28;20038;-74
2023/09/11 10:04:53;;;;;;;14.43;10.98;;;27.20;60.20;;;;;;4945248;28;20114;-74
2023/09/11 10:07:42;;;;;;;17.13;10.52;;;27.10;60.00;;;;;;4941615;28;20459;-75
2023/09/11 10:10:25;;;;;;;14.57;11.27;;;27.30;59.60;;;;;;4937184;28;20110;-74
2023/09/11 10:13:13;;;;;;;13.75;11.73;;;27.50;60.70;;;;;;4939018;28;20038;-77
2023/09/11 10:15:41;;;;;;;15.32;10.38;;;27.50;59.90;;;;;;4936055;28;20035;-74
2023/09/11 10:18:11;;;;;;;13.65;10.38;;;27.60;59.60;;;;;;4936611;28;20038;-72
2023/09/11 10:20:37;;;;;;;12.82;8.88;;;27.80;58.90;;;;;;4936969;28;20051;-75
2023/09/11 10:23:04;;;;;;;15.07;10.80;;;28.00;59.20;;;;;;4942004;28;20063;-74
2023/09/11 10:25:37;;;;;;;15.82;12.40;;;28.00;58.00;;;;;;4938480;28;20107;-74
2023/09/11 10:28:06;;;;;;;19.05;11.27;;;27.80;58.30;;;;;;4933644;28;20059;-75
2023/09/11 10:30:58;;;;;;;14.82;11.90;;;27.70;59.20;;;;;;4943709;28;20029;-74
2023/09/11 10:33:26;;;;;;;14.10;10.90;;;27.80;59.80;;;;;;4929693;28;20114;-75
2023/09/11 10:35:58;;;;;;;14.80;10.93;;;27.80;59.10;;;;;;4942351;28;20069;-76
2023/09/11 10:38:30;;;;;;;14.32;10.18;;;27.50;59.40;;;;;;4946728;28;20085;-75
2023/09/11 10:40:59;;;;;;;15.07;11.07;;;27.50;59.10;;;;;;4944718;28;20041;-77
2023/09/11 10:43:25;;;;;;;15.52;11.73;;;27.60;59.50;;;;;;4938370;28;20040;-76
2023/09/11 10:45:52;;;;;;;16.55;12.85;;;27.80;59.40;;;;;;4938509;28;20569;-78
2023/09/11 10:48:29;;;;;;;16.75;12.77;;;27.80;59.40;;;;;;4941393;28;20074;-78
2023/09/11 10:50:57;;;;;;;18.48;12.40;;;28.00;59.20;;;;;;4936047;28;20043;-80
2023/09/11 10:53:28;;;;;;;19.25;12.80;;;28.00;58.90;;;;;;4942712;28;20673;-74
2023/09/11 10:55:57;;;;;;;16.35;11.82;;;28.00;58.90;;;;;;4940140;28;20028;-75
2023/09/11 10:58:25;;;;;;;15.05;11.80;;;28.10;58.80;;;;;;4933738;28;20516;-74
2023/09/11 11:00:55;;;;;;;17.65;12.52;;;28.10;59.00;;;;;;4936911;28;20668;-75
2023/09/11 11:03:24;;;;;;;17.00;12.30;;;28.10;58.10;;;;;;4933632;28;20046;-74
2023/09/11 11:05:52;;;;;;;15.55;13.30;;;28.20;58.90;;;;;;4935657;28;20101;-76
2023/09/11 11:08:18;;;;;;;18.88;12.82;;;28.10;59.00;;;;;;4936245;28;20036;-77
2023/09/11 11:10:47;;;;;;;17.45;14.60;;;28.10;59.20;;;;;;4933559;28;20035;-77
2023/09/11 11:13:13;;;;;;;19.98;14.75;;;28.10;58.10;;;;;;4933700;28;20127;-76
2023/09/11 11:15:39;;;;;;;16.17;13.00;;;28.20;58.60;;;;;;4933377;28;20104;-76
2023/09/11 11:18:23;;;;;;;17.23;13.35;;;28.40;58.70;;;;;;4939362;28;20119;-75
2023/09/11 11:21:07;;;;;;;17.02;12.80;;;28.50;57.70;;;;;;4933831;28;20067;-76
2023/09/11 11:23:33;;;;;;;;;;;28.50;58.80;;;;;;4935191;28;20141;-76
2023/09/11 11:26:06;;;;;;;15.85;13.15;;;28.70;58.60;;;;;;4935468;28;19914;-75
2023/09/11 11:28:43;;;;;;;14.48;10.90;;;28.70;58.50;;;;;;4942970;28;20064;-75
2023/09/11 11:31:16;;;;;;;16.27;10.75;;;28.70;56.30;;;;;;4935596;28;20053;-76
2023/09/11 11:33:45;;;;;;;14.18;9.93;;;28.80;56.40;;;;;;4941631;28;20043;-76
2023/09/11 11:36:12;;;;;;;18.90;13.10;;;28.90;56.40;;;;;;4932750;28;20034;-75
2023/09/11 11:38:39;;;;;;;15.77;11.82;;;28.90;55.50;;;;;;4934754;28;20490;-74
2023/09/11 11:41:07;;;;;;;16.40;12.60;;;29.00;56.10;;;;;;4935738;28;20031;-76
2023/09/11 11:43:33;;;;;;;15.50;10.57;;;29.00;56.00;;;;;;4933316;28;20077;-76
2023/09/11 11:45:59;;;;;;;15.40;10.93;;;29.00;56.10;;;;;;4938379;28;20406;-75
2023/09/11 11:48:27;;;;;;;17.63;12.70;;;28.80;56.30;;;;;;4937588;28;20058;-75
2023/09/11 11:50:55;;;;;;;16.33;11.43;;;28.90;56.30;;;;;;4934913;28;20601;-74
2023/09/11 11:53:23;;;;;;;16.00;11.95;;;29.00;57.00;;;;;;4947545;28;20445;-74
2023/09/11 11:55:49;;;;;;;15.00;10.80;;;29.00;56.50;;;;;;4946998;28;20027;-74
2023/09/11 11:58:15;;;;;;;15.18;11.00;;;28.80;55.60;;;;;;4955015;28;20043;-75
2023/09/11 12:00:58;;;;;;;15.25;10.75;;;28.70;56.20;;;;;;4937753;28;20027;-76
2023/09/11 12:03:28;;;;;;;15.90;11.73;;;28.60;56.70;;;;;;4949257;28;20035;-75
2023/09/11 12:05:55;;;;;;;20.02;12.68;;;28.50;56.80;;;;;;4945762;28;20103;-74
2023/09/11 12:08:21;;;;;;;15.88;13.02;;;28.50;56.90;;;;;;4949482;28;20138;-73
2023/09/11 12:10:50;;;;;;;15.60;11.50;;;28.60;56.50;;;;;;4973076;28;20034;-75
2023/09/11 12:13:22;;;;;;;16.08;11.98;;;28.70;56.70;;;;;;4947123;28;20069;-74
2023/09/11 12:15:58;;;;;;;15.68;11.52;;;28.70;57.40;;;;;;4945159;28;20190;-74
2023/09/11 12:18:26;;;;;;;15.05;12.00;;;28.90;57.60;;;;;;4945348;28;20083;-74
2023/09/11 12:20:54;;;;;;;15.77;11.40;;;29.00;55.20;;;;;;4949126;28;20239;-75
2023/09/11 12:23:20;;;;;;;17.08;11.40;;;28.90;55.70;;;;;;4964828;28;20470;-76
2023/09/11 12:25:46;;;;;;;17.23;12.00;;;28.70;56.30;;;;;;4964120;28;20030;-76
2023/09/11 12:28:12;;;;;;;17.70;11.93;;;28.60;57.30;;;;;;4966088;28;20425;-75
2023/09/11 12:30:38;;;;;;;15.05;10.30;;;28.60;57.70;;;;;;4962244;28;20591;-75